sensor_id;sensor_type;location;lat;lon;timestamp;temperature;humidity
36352;DHT22;22382;44.768;17.206;2023-07-13T00:00:25;22.90;99.90
36352;DHT22;22382;44.768;17.206;2023-07-13T00:02:52;22.80;99.90
36352;DHT22;22382;44.768;17.206;2023-07-13T00:05:23;22.80;99.90
36352;DHT22;22382;44.768;17.206;2023-07-13T00:07:51;22.80;99.90
36352;DHT22;22382;44.768;17.206;2023-07-13T00:10:18;22.80;99.90
36352;DHT22;22382;44.768;17.206;2023-07-13T00:12:46;22.80;99.90
36352;DHT22;22382;44.768;17.206;2023-07-13T00:15:21;22.70;99.90
36352;DHT22;22382;44.768;17.206;2023-07-13T00:17:53;22.70;99.90
36352;DHT22;22382;44.768;17.206;2023-07-13T00:20:23;22.70;99.90
36352;DHT22;22382;44.768;17.206;2023-07-13T00:22:52;22.60;99.90
36352;DHT22;22382;44.768;17.206;2023-07-13T00:25:25;22.50;99.90
36352;DHT22;22382;44.768;17.206;2023-07-13T00:27:55;22.50;99.90
36352;DHT22;22382;44.768;17.206;2023-07-13T00:30:22;22.50;99.90
36352;DHT22;22382;44.768;17.206;2023-07-13T00:32:50;22.50;99.90
36352;DHT22;22382;44.768;17.206;2023-07-13T00:35:31;22.50;99.90
36352;DHT22;22382;44.768;17.206;2023-07-13T00:37:59;22.40;99.90
36352;DHT22;22382;44.768;17.206;2023-07-13T00:40:26;22.50;99.90
36352;DHT22;22382;44.768;17.206;2023-07-13T00:42:53;22.50;99.90
36352;DHT22;22382;44.768;17.206;2023-07-13T00:47:51;22.50;99.90
36352;DHT22;22382;44.768;17.206;2023-07-13T00:50:20;22.40;99.90
36352;DHT22;22382;44.768;17.206;2023-07-13T00:52:51;22.40;99.90
36352;DHT22;22382;44.768;17.206;2023-07-13T00:55:21;22.50;99.90
36352;DHT22;22382;44.768;17.206;2023-07-13T00:57:49;22.40;99.90
36352;DHT22;22382;44.768;17.206;2023-07-13T01:00:16;22.40;99.90
36352;DHT22;22382;44.768;17.206;2023-07-13T01:02:45;22.40;99.90
36352;DHT22;22382;44.768;17.206;2023-07-13T01:05:16;22.40;99.90
36352;DHT22;22382;44.768;17.206;2023-07-13T01:07:44;22.40;99.90
36352;DHT22;22382;44.768;17.206;2023-07-13T01:10:12;22.40;99.90
36352;DHT22;22382;44.768;17.206;2023-07-13T01:12:40;22.30;99.90
36352;DHT22;22382;44.768;17.206;2023-07-13T01:18:04;22.20;99.90
36352;DHT22;22382;44.768;17.206;2023-07-13T01:20:32;22.20;99.90
36352;DHT22;22382;44.768;17.206;2023-07-13T01:23:05;22.20;99.90
36352;DHT22;22382;44.768;17.206;2023-07-13T01:25:34;22.20;99.90
36352;DHT22;22382;44.768;17.206;2023-07-13T01:28:06;22.20;99.90
36352;DHT22;22382;44.768;17.206;2023-07-13T01:30:37;22.10;99.90
36352;DHT22;22382;44.768;17.206;2023-07-13T01:33:07;22.10;99.90
36352;DHT22;22382;44.768;17.206;2023-07-13T01:35:36;22.10;99.90
36352;DHT22;22382;44.768;17.206;2023-07-13T01:38:04;22.10;99.90
36352;DHT22;22382;44.768;17.206;2023-07-13T01:40:32;22.00;99.90
36352;DHT22;22382;44.768;17.206;2023-07-13T01:43:00;22.00;99.90
36352;DHT22;22382;44.768;17.206;2023-07-13T01:45:27;22.00;99.90
36352;DHT22;22382;44.768;17.206;2023-07-13T01:47:55;22.00;99.90
36352;DHT22;22382;44.768;17.206;2023-07-13T01:50:22;22.00;99.90
36352;DHT22;22382;44.768;17.206;2023-07-13T01:52:50;21.90;99.90
36352;DHT22;22382;44.768;17.206;2023-07-13T01:55:17;21.90;99.90
36352;DHT22;22382;44.768;17.206;2023-07-13T01:57:44;21.80;99.90
36352;DHT22;22382;44.768;17.206;2023-07-13T02:00:13;21.70;99.90
36352;DHT22;22382;44.768;17.206;2023-07-13T02:02:40;21.70;99.90
36352;DHT22;22382;44.768;17.206;2023-07-13T02:05:12;21.60;99.90
36352;DHT22;22382;44.768;17.206;2023-07-13T02:07:40;21.60;99.90
36352;DHT22;22382;44.768;17.206;2023-07-13T02:10:09;21.60;99.90
36352;DHT22;22382;44.768;17.206;2023-07-13T02:12:37;21.60;99.90
36352;DHT22;22382;44.768;17.206;2023-07-13T02:15:05;21.60;99.90
36352;DHT22;22382;44.768;17.206;2023-07-13T02:17:33;21.60;99.90
36352;DHT22;22382;44.768;17.206;2023-07-13T02:20:00;21.60;99.90
36352;DHT22;22382;44.768;17.206;2023-07-13T02:22:28;21.60;99.90
36352;DHT22;22382;44.768;17.206;2023-07-13T02:24:55;21.60;99.90
36352;DHT22;22382;44.768;17.206;2023-07-13T02:27:22;21.70;99.90
36352;DHT22;22382;44.768;17.206;2023-07-13T02:29:49;21.70;99.90
36352;DHT22;22382;44.768;17.206;2023-07-13T02:32:18;21.60;99.90
36352;DHT22;22382;44.768;17.206;2023-07-13T02:34:45;21.70;99.90
36352;DHT22;22382;44.768;17.206;2023-07-13T02:37:13;21.70;99.90
36352;DHT22;22382;44.768;17.206;2023-07-13T02:39:40;21.60;99.90
36352;DHT22;22382;44.768;17.206;2023-07-13T02:42:08;21.70;99.90
36352;DHT22;22382;44.768;17.206;2023-07-13T02:44:35;21.60;99.90
36352;DHT22;22382;44.768;17.206;2023-07-13T02:47:02;21.60;99.90
36352;DHT22;22382;44.768;17.206;2023-07-13T02:49:30;21.60;99.90
36352;DHT22;22382;44.768;17.206;2023-07-13T02:51:57;21.60;99.90
36352;DHT22;22382;44.768;17.206;2023-07-13T02:54:24;21.70;99.90
36352;DHT22;22382;44.768;17.206;2023-07-13T02:56:52;21.60;99.90
36352;DHT22;22382;44.768;17.206;2023-07-13T02:59:19;21.60;99.90
36352;DHT22;22382;44.768;17.206;2023-07-13T03:01:46;21.60;99.90
36352;DHT22;22382;44.768;17.206;2023-07-13T03:04:13;21.60;99.90
36352;DHT22;22382;44.768;17.206;2023-07-13T03:06:41;21.60;99.90
36352;DHT22;22382;44.768;17.206;2023-07-13T03:09:08;21.70;99.90
36352;DHT22;22382;44.768;17.206;2023-07-13T03:11:35;21.70;99.90
36352;DHT22;22382;44.768;17.206;2023-07-13T03:14:02;21.70;99.90
36352;DHT22;22382;44.768;17.206;2023-07-13T03:16:30;21.70;99.90
36352;DHT22;22382;44.768;17.206;2023-07-13T03:18:57;21.70;99.90
36352;DHT22;22382;44.768;17.206;2023-07-13T03:21:24;21.60;99.90
36352;DHT22;22382;44.768;17.206;2023-07-13T03:23:51;21.60;99.90
36352;DHT22;22382;44.768;17.206;2023-07-13T03:26:20;21.60;99.90
36352;DHT22;22382;44.768;17.206;2023-07-13T03:28:47;21.60;99.90
36352;DHT22;22382;44.768;17.206;2023-07-13T03:31:18;21.60;99.90
36352;DHT22;22382;44.768;17.206;2023-07-13T03:33:46;21.70;99.90
36352;DHT22;22382;44.768;17.206;2023-07-13T03:36:19;21.70;99.90
36352;DHT22;22382;44.768;17.206;2023-07-13T03:38:48;21.80;99.90
36352;DHT22;22382;44.768;17.206;2023-07-13T03:41:16;21.90;99.90
36352;DHT22;22382;44.768;17.206;2023-07-13T03:43:44;22.00;99.90
36352;DHT22;22382;44.768;17.206;2023-07-13T03:46:11;22.10;99.90
36352;DHT22;22382;44.768;17.206;2023-07-13T03:48:40;22.20;99.90
36352;DHT22;22382;44.768;17.206;2023-07-13T03:51:08;22.20;99.90
36352;DHT22;22382;44.768;17.206;2023-07-13T03:53:39;22.30;99.90
36352;DHT22;22382;44.768;17.206;2023-07-13T03:56:08;22.40;99.90
36352;DHT22;22382;44.768;17.206;2023-07-13T03:58:38;22.60;99.90
36352;DHT22;22382;44.768;17.206;2023-07-13T04:01:08;22.70;99.90
36352;DHT22;22382;44.768;17.206;2023-07-13T04:03:36;22.90;99.90
36352;DHT22;22382;44.768;17.206;2023-07-13T04:06:06;23.00;99.90
36352;DHT22;22382;44.768;17.206;2023-07-13T04:08:35;23.20;99.90
36352;DHT22;22382;44.768;17.206;2023-07-13T04:11:03;23.30;99.90
36352;DHT22;22382;44.768;17.206;2023-07-13T04:13:31;23.40;99.90
36352;DHT22;22382;44.768;17.206;2023-07-13T04:15:58;23.50;99.90
36352;DHT22;22382;44.768;17.206;2023-07-13T04:18:26;23.50;99.90
36352;DHT22;22382;44.768;17.206;2023-07-13T04:20:53;23.70;99.90
36352;DHT22;22382;44.768;17.206;2023-07-13T04:23:20;23.80;99.90
36352;DHT22;22382;44.768;17.206;2023-07-13T04:25:49;23.90;99.90
36352;DHT22;22382;44.768;17.206;2023-07-13T04:28:16;24.00;99.90
36352;DHT22;22382;44.768;17.206;2023-07-13T04:30:46;24.10;99.90
36352;DHT22;22382;44.768;17.206;2023-07-13T04:33:14;24.30;99.90
36352;DHT22;22382;44.768;17.206;2023-07-13T04:35:41;24.40;99.90
36352;DHT22;22382;44.768;17.206;2023-07-13T04:38:08;24.60;99.90
36352;DHT22;22382;44.768;17.206;2023-07-13T04:40:38;24.70;99.50
36352;DHT22;22382;44.768;17.206;2023-07-13T04:43:05;24.90;99.90
36352;DHT22;22382;44.768;17.206;2023-07-13T04:45:32;25.10;99.20
36352;DHT22;22382;44.768;17.206;2023-07-13T04:47:59;25.30;98.80
36352;DHT22;22382;44.768;17.206;2023-07-13T04:50:27;25.50;97.40
36352;DHT22;22382;44.768;17.206;2023-07-13T04:52:54;25.60;97.60
36352;DHT22;22382;44.768;17.206;2023-07-13T04:55:21;25.70;97.30
36352;DHT22;22382;44.768;17.206;2023-07-13T04:57:48;25.90;96.30
36352;DHT22;22382;44.768;17.206;2023-07-13T05:00:15;26.00;95.30
36352;DHT22;22382;44.768;17.206;2023-07-13T05:02:46;26.20;93.70
36352;DHT22;22382;44.768;17.206;2023-07-13T05:05:13;26.30;93.00
36352;DHT22;22382;44.768;17.206;2023-07-13T05:07:40;26.40;92.90
36352;DHT22;22382;44.768;17.206;2023-07-13T05:10:08;26.70;92.90
36352;DHT22;22382;44.768;17.206;2023-07-13T05:12:36;27.00;92.30
36352;DHT22;22382;44.768;17.206;2023-07-13T05:15:03;27.10;91.70
36352;DHT22;22382;44.768;17.206;2023-07-13T05:17:31;27.40;90.40
36352;DHT22;22382;44.768;17.206;2023-07-13T05:19:58;27.40;90.60
36352;DHT22;22382;44.768;17.206;2023-07-13T05:22:26;27.40;90.90
36352;DHT22;22382;44.768;17.206;2023-07-13T05:24:53;27.50;91.00
36352;DHT22;22382;44.768;17.206;2023-07-13T05:27:20;27.50;91.40
36352;DHT22;22382;44.768;17.206;2023-07-13T05:29:48;27.40;91.80
36352;DHT22;22382;44.768;17.206;2023-07-13T05:32:15;27.20;91.20
36352;DHT22;22382;44.768;17.206;2023-07-13T05:34:42;27.00;91.10
36352;DHT22;22382;44.768;17.206;2023-07-13T05:37:10;26.50;91.30
36352;DHT22;22382;44.768;17.206;2023-07-13T05:39:37;26.30;91.90
36352;DHT22;22382;44.768;17.206;2023-07-13T05:42:04;26.00;92.40
36352;DHT22;22382;44.768;17.206;2023-07-13T05:44:31;25.70;92.90
36352;DHT22;22382;44.768;17.206;2023-07-13T05:46:59;25.90;92.90
36352;DHT22;22382;44.768;17.206;2023-07-13T05:49:26;26.30;92.70
36352;DHT22;22382;44.768;17.206;2023-07-13T05:51:54;26.80;92.30
36352;DHT22;22382;44.768;17.206;2023-07-13T05:54:21;27.20;92.00
36352;DHT22;22382;44.768;17.206;2023-07-13T05:56:48;27.50;91.20
36352;DHT22;22382;44.768;17.206;2023-07-13T05:59:17;27.70;90.60
36352;DHT22;22382;44.768;17.206;2023-07-13T06:01:45;28.00;90.10
36352;DHT22;22382;44.768;17.206;2023-07-13T06:04:12;28.30;89.40
36352;DHT22;22382;44.768;17.206;2023-07-13T06:06:39;28.60;87.10
36352;DHT22;22382;44.768;17.206;2023-07-13T06:09:07;28.70;86.60
36352;DHT22;22382;44.768;17.206;2023-07-13T06:11:34;28.90;86.90
36352;DHT22;22382;44.768;17.206;2023-07-13T06:14:02;28.80;86.90
36352;DHT22;22382;44.768;17.206;2023-07-13T06:16:30;28.90;86.40
36352;DHT22;22382;44.768;17.206;2023-07-13T06:18:58;29.10;83.00
36352;DHT22;22382;44.768;17.206;2023-07-13T06:21:25;29.20;82.00
36352;DHT22;22382;44.768;17.206;2023-07-13T06:23:52;29.40;80.00
36352;DHT22;22382;44.768;17.206;2023-07-13T06:26:21;29.50;79.30
36352;DHT22;22382;44.768;17.206;2023-07-13T06:28:48;29.70;79.00
36352;DHT22;22382;44.768;17.206;2023-07-13T06:31:15;29.80;78.40
36352;DHT22;22382;44.768;17.206;2023-07-13T06:33:43;29.90;78.80
36352;DHT22;22382;44.768;17.206;2023-07-13T06:36:11;30.30;75.70
36352;DHT22;22382;44.768;17.206;2023-07-13T06:38:39;30.10;77.50
36352;DHT22;22382;44.768;17.206;2023-07-13T06:41:07;29.70;78.20
36352;DHT22;22382;44.768;17.206;2023-07-13T06:43:36;29.90;78.30
36352;DHT22;22382;44.768;17.206;2023-07-13T06:46:04;30.40;78.10
36352;DHT22;22382;44.768;17.206;2023-07-13T06:48:31;30.50;80.00
36352;DHT22;22382;44.768;17.206;2023-07-13T06:50:59;30.50;77.30
36352;DHT22;22382;44.768;17.206;2023-07-13T06:53:26;30.50;77.70
36352;DHT22;22382;44.768;17.206;2023-07-13T06:55:53;30.50;76.60
36352;DHT22;22382;44.768;17.206;2023-07-13T06:58:22;30.40;77.10
36352;DHT22;22382;44.768;17.206;2023-07-13T07:00:53;30.40;76.70
36352;DHT22;22382;44.768;17.206;2023-07-13T07:03:20;30.40;76.80
36352;DHT22;22382;44.768;17.206;2023-07-13T07:05:47;30.20;78.30
36352;DHT22;22382;44.768;17.206;2023-07-13T07:08:15;30.30;79.30
36352;DHT22;22382;44.768;17.206;2023-07-13T07:10:42;30.30;79.10
36352;DHT22;22382;44.768;17.206;2023-07-13T07:13:10;30.40;79.80
36352;DHT22;22382;44.768;17.206;2023-07-13T07:15:37;30.50;79.30
36352;DHT22;22382;44.768;17.206;2023-07-13T07:18:04;30.30;80.30
36352;DHT22;22382;44.768;17.206;2023-07-13T07:20:32;29.90;81.40
36352;DHT22;22382;44.768;17.206;2023-07-13T07:22:59;29.60;82.20
36352;DHT22;22382;44.768;17.206;2023-07-13T07:25:27;29.40;83.20
36352;DHT22;22382;44.768;17.206;2023-07-13T07:28:00;29.50;83.50
36352;DHT22;22382;44.768;17.206;2023-07-13T07:30:30;29.40;85.60
36352;DHT22;22382;44.768;17.206;2023-07-13T07:33:00;29.20;87.40
36352;DHT22;22382;44.768;17.206;2023-07-13T07:35:31;29.00;89.30
36352;DHT22;22382;44.768;17.206;2023-07-13T07:38:04;29.40;87.20
36352;DHT22;22382;44.768;17.206;2023-07-13T07:40:32;29.70;86.50
36352;DHT22;22382;44.768;17.206;2023-07-13T07:43:06;29.80;86.80
36352;DHT22;22382;44.768;17.206;2023-07-13T07:45:34;29.70;85.10
36352;DHT22;22382;44.768;17.206;2023-07-13T07:48:02;29.70;86.20
36352;DHT22;22382;44.768;17.206;2023-07-13T07:50:29;30.10;85.10
36352;DHT22;22382;44.768;17.206;2023-07-13T07:52:56;30.30;82.60
36352;DHT22;22382;44.768;17.206;2023-07-13T07:55:24;30.40;83.10
36352;DHT22;22382;44.768;17.206;2023-07-13T07:57:57;30.20;84.10
36352;DHT22;22382;44.768;17.206;2023-07-13T08:00:27;30.60;82.80
36352;DHT22;22382;44.768;17.206;2023-07-13T08:03:18;30.90;82.50
36352;DHT22;22382;44.768;17.206;2023-07-13T08:05:52;31.00;83.20
36352;DHT22;22382;44.768;17.206;2023-07-13T08:08:23;31.10;81.20
36352;DHT22;22382;44.768;17.206;2023-07-13T08:10:50;30.80;81.40
36352;DHT22;22382;44.768;17.206;2023-07-13T08:13:21;30.60;81.30
36352;DHT22;22382;44.768;17.206;2023-07-13T08:15:48;30.70;82.30
36352;DHT22;22382;44.768;17.206;2023-07-13T08:18:16;31.00;81.20
36352;DHT22;22382;44.768;17.206;2023-07-13T08:20:43;31.20;80.30
36352;DHT22;22382;44.768;17.206;2023-07-13T08:23:11;31.40;79.40
36352;DHT22;22382;44.768;17.206;2023-07-13T08:25:39;31.20;81.00
36352;DHT22;22382;44.768;17.206;2023-07-13T08:28:06;31.40;80.20
36352;DHT22;22382;44.768;17.206;2023-07-13T08:30:33;31.60;80.10
36352;DHT22;22382;44.768;17.206;2023-07-13T08:33:00;31.50;80.30
36352;DHT22;22382;44.768;17.206;2023-07-13T08:35:28;31.30;79.60
36352;DHT22;22382;44.768;17.206;2023-07-13T08:37:57;31.30;80.00
36352;DHT22;22382;44.768;17.206;2023-07-13T08:40:25;31.30;79.40
36352;DHT22;22382;44.768;17.206;2023-07-13T08:42:57;31.60;78.70
36352;DHT22;22382;44.768;17.206;2023-07-13T08:48:08;31.60;77.90
36352;DHT22;22382;44.768;17.206;2023-07-13T08:50:56;31.80;77.30
36352;DHT22;22382;44.768;17.206;2023-07-13T08:53:51;31.40;78.90
36352;DHT22;22382;44.768;17.206;2023-07-13T08:56:24;31.80;78.30
36352;DHT22;22382;44.768;17.206;2023-07-13T08:58:57;31.80;78.90
36352;DHT22;22382;44.768;17.206;2023-07-13T09:01:39;32.10;77.90
36352;DHT22;22382;44.768;17.206;2023-07-13T09:04:16;32.30;77.30
36352;DHT22;22382;44.768;17.206;2023-07-13T09:07:00;32.30;77.30
36352;DHT22;22382;44.768;17.206;2023-07-13T09:12:21;32.60;75.90
36352;DHT22;22382;44.768;17.206;2023-07-13T09:14:53;32.50;76.00
36352;DHT22;22382;44.768;17.206;2023-07-13T09:20:21;33.10;73.20
36352;DHT22;22382;44.768;17.206;2023-07-13T09:22:50;33.00;74.60
36352;DHT22;22382;44.768;17.206;2023-07-13T09:25:33;33.00;74.20
36352;DHT22;22382;44.768;17.206;2023-07-13T09:28:14;32.80;74.10
36352;DHT22;22382;44.768;17.206;2023-07-13T09:31:02;33.40;72.80
36352;DHT22;22382;44.768;17.206;2023-07-13T09:33:30;33.60;72.20
36352;DHT22;22382;44.768;17.206;2023-07-13T09:35:58;33.70;72.20
36352;DHT22;22382;44.768;17.206;2023-07-13T09:38:30;34.00;72.00
36352;DHT22;22382;44.768;17.206;2023-07-13T09:44:07;33.00;73.70
36352;DHT22;22382;44.768;17.206;2023-07-13T09:46:43;32.90;74.20
36352;DHT22;22382;44.768;17.206;2023-07-13T09:49:11;33.00;74.60
36352;DHT22;22382;44.768;17.206;2023-07-13T09:51:41;33.50;74.10
36352;DHT22;22382;44.768;17.206;2023-07-13T09:54:23;33.80;72.40
36352;DHT22;22382;44.768;17.206;2023-07-13T09:56:59;33.60;72.60
36352;DHT22;22382;44.768;17.206;2023-07-13T09:59:47;33.50;72.90
36352;DHT22;22382;44.768;17.206;2023-07-13T10:02:27;33.50;73.10
36352;DHT22;22382;44.768;17.206;2023-07-13T10:05:03;33.30;72.90
36352;DHT22;22382;44.768;17.206;2023-07-13T10:07:37;33.60;72.50
36352;DHT22;22382;44.768;17.206;2023-07-13T10:10:14;33.60;71.50
36352;DHT22;22382;44.768;17.206;2023-07-13T10:12:42;33.20;72.80
36352;DHT22;22382;44.768;17.206;2023-07-13T10:15:16;33.20;72.90
36352;DHT22;22382;44.768;17.206;2023-07-13T10:17:52;32.90;73.80
36352;DHT22;22382;44.768;17.206;2023-07-13T10:20:20;32.90;73.60
36352;DHT22;22382;44.768;17.206;2023-07-13T10:22:58;33.00;73.50
36352;DHT22;22382;44.768;17.206;2023-07-13T10:25:32;32.80;75.00
36352;DHT22;22382;44.768;17.206;2023-07-13T10:28:29;32.50;74.30
36352;DHT22;22382;44.768;17.206;2023-07-13T10:30:58;32.50;74.70
36352;DHT22;22382;44.768;17.206;2023-07-13T10:33:27;33.00;73.40
36352;DHT22;22382;44.768;17.206;2023-07-13T10:36:46;32.90;72.50
36352;DHT22;22382;44.768;17.206;2023-07-13T10:38:48;32.60;72.60
36352;DHT22;22382;44.768;17.206;2023-07-13T10:41:22;32.40;73.50
36352;DHT22;22382;44.768;17.206;2023-07-13T10:43:55;32.70;73.30
36352;DHT22;22382;44.768;17.206;2023-07-13T10:46:26;33.10;73.30
36352;DHT22;22382;44.768;17.206;2023-07-13T10:49:05;33.20;71.00
36352;DHT22;22382;44.768;17.206;2023-07-13T10:51:34;33.40;71.00
36352;DHT22;22382;44.768;17.206;2023-07-13T10:54:18;33.60;71.80
36352;DHT22;22382;44.768;17.206;2023-07-13T10:56:51;33.50;72.30
36352;DHT22;22382;44.768;17.206;2023-07-13T10:59:25;33.00;72.60
36352;DHT22;22382;44.768;17.206;2023-07-13T11:02:44;33.00;72.80
36352;DHT22;22382;44.768;17.206;2023-07-13T11:04:47;33.10;72.20
36352;DHT22;22382;44.768;17.206;2023-07-13T11:07:21;33.00;71.90
36352;DHT22;22382;44.768;17.206;2023-07-13T11:09:51;33.20;71.20
36352;DHT22;22382;44.768;17.206;2023-07-13T11:22:52;33.50;71.00
36352;DHT22;22382;44.768;17.206;2023-07-13T11:25:29;33.70;70.00
36352;DHT22;22382;44.768;17.206;2023-07-13T11:30:59;33.20;71.70
36352;DHT22;22382;44.768;17.206;2023-07-13T11:38:41;33.80;70.90
36352;DHT22;22382;44.768;17.206;2023-07-13T11:41:19;34.00;70.50
36352;DHT22;22382;44.768;17.206;2023-07-13T11:43:54;34.20;69.80
36352;DHT22;22382;44.768;17.206;2023-07-13T11:46:24;33.90;70.10
36352;DHT22;22382;44.768;17.206;2023-07-13T11:48:52;33.80;70.30
36352;DHT22;22382;44.768;17.206;2023-07-13T11:51:31;33.50;70.20
36352;DHT22;22382;44.768;17.206;2023-07-13T11:54:22;33.20;70.70
36352;DHT22;22382;44.768;17.206;2023-07-13T11:56:50;33.40;70.70
36352;DHT22;22382;44.768;17.206;2023-07-13T11:59:18;33.20;71.30
36352;DHT22;22382;44.768;17.206;2023-07-13T12:01:50;33.00;72.50
36352;DHT22;22382;44.768;17.206;2023-07-13T12:04:34;32.40;73.20
36352;DHT22;22382;44.768;17.206;2023-07-13T12:07:07;31.80;75.20
36352;DHT22;22382;44.768;17.206;2023-07-13T12:09:35;31.90;75.40
36352;DHT22;22382;44.768;17.206;2023-07-13T12:12:08;31.50;75.90
36352;DHT22;22382;44.768;17.206;2023-07-13T12:14:37;31.80;76.30
36352;DHT22;22382;44.768;17.206;2023-07-13T12:17:15;32.30;76.00
36352;DHT22;22382;44.768;17.206;2023-07-13T12:19:43;33.00;75.10
36352;DHT22;22382;44.768;17.206;2023-07-13T12:22:12;33.10;75.20
36352;DHT22;22382;44.768;17.206;2023-07-13T12:24:43;33.30;74.40
36352;DHT22;22382;44.768;17.206;2023-07-13T12:30:03;34.10;74.30
36352;DHT22;22382;44.768;17.206;2023-07-13T12:32:32;34.30;73.10
36352;DHT22;22382;44.768;17.206;2023-07-13T12:35:26;34.20;72.00
36352;DHT22;22382;44.768;17.206;2023-07-13T12:37:57;33.30;73.90
36352;DHT22;22382;44.768;17.206;2023-07-13T12:40:34;33.00;74.30
36352;DHT22;22382;44.768;17.206;2023-07-13T12:43:03;33.00;74.10
36352;DHT22;22382;44.768;17.206;2023-07-13T12:45:33;32.90;74.70
36352;DHT22;22382;44.768;17.206;2023-07-13T12:48:16;32.60;75.30
36352;DHT22;22382;44.768;17.206;2023-07-13T12:50:50;32.50;76.60
36352;DHT22;22382;44.768;17.206;2023-07-13T12:53:22;32.20;76.80
36352;DHT22;22382;44.768;17.206;2023-07-13T12:55:56;32.10;76.60
36352;DHT22;22382;44.768;17.206;2023-07-13T12:58:29;32.40;76.00
36352;DHT22;22382;44.768;17.206;2023-07-13T13:00:59;32.50;76.10
36352;DHT22;22382;44.768;17.206;2023-07-13T13:03:48;32.60;76.20
36352;DHT22;22382;44.768;17.206;2023-07-13T13:08:48;31.30;80.20
36352;DHT22;22382;44.768;17.206;2023-07-13T13:11:16;31.20;81.10
36352;DHT22;22382;44.768;17.206;2023-07-13T13:13:44;31.10;80.90
36352;DHT22;22382;44.768;17.206;2023-07-13T13:18:56;30.90;82.00
36352;DHT22;22382;44.768;17.206;2023-07-13T13:21:26;30.80;82.20
36352;DHT22;22382;44.768;17.206;2023-07-13T13:23:53;30.70;81.70
36352;DHT22;22382;44.768;17.206;2023-07-13T13:26:22;30.50;82.80
36352;DHT22;22382;44.768;17.206;2023-07-13T13:28:49;30.90;82.80
36352;DHT22;22382;44.768;17.206;2023-07-13T13:31:17;30.90;82.10
36352;DHT22;22382;44.768;17.206;2023-07-13T13:33:45;31.20;81.90
36352;DHT22;22382;44.768;17.206;2023-07-13T13:36:23;31.30;80.60
36352;DHT22;22382;44.768;17.206;2023-07-13T13:38:50;31.50;80.90
36352;DHT22;22382;44.768;17.206;2023-07-13T13:41:18;31.60;80.10
36352;DHT22;22382;44.768;17.206;2023-07-13T13:43:45;31.40;80.30
36352;DHT22;22382;44.768;17.206;2023-07-13T13:46:19;31.10;81.20
36352;DHT22;22382;44.768;17.206;2023-07-13T13:48:48;31.10;81.60
36352;DHT22;22382;44.768;17.206;2023-07-13T13:51:19;31.20;82.20
36352;DHT22;22382;44.768;17.206;2023-07-13T13:53:47;30.90;82.30
36352;DHT22;22382;44.768;17.206;2023-07-13T13:56:17;31.00;81.60
36352;DHT22;22382;44.768;17.206;2023-07-13T13:58:45;30.90;82.10
36352;DHT22;22382;44.768;17.206;2023-07-13T14:01:18;30.80;82.50
36352;DHT22;22382;44.768;17.206;2023-07-13T14:03:46;30.70;82.60
36352;DHT22;22382;44.768;17.206;2023-07-13T14:06:16;30.60;81.80
36352;DHT22;22382;44.768;17.206;2023-07-13T14:08:45;30.60;82.10
36352;DHT22;22382;44.768;17.206;2023-07-13T14:11:16;30.70;82.20
36352;DHT22;22382;44.768;17.206;2023-07-13T14:13:55;30.70;82.20
36352;DHT22;22382;44.768;17.206;2023-07-13T14:16:28;30.80;81.30
36352;DHT22;22382;44.768;17.206;2023-07-13T14:18:56;30.90;81.10
36352;DHT22;22382;44.768;17.206;2023-07-13T14:21:28;30.90;82.30
36352;DHT22;22382;44.768;17.206;2023-07-13T14:23:56;30.50;82.30
36352;DHT22;22382;44.768;17.206;2023-07-13T14:26:25;30.50;83.10
36352;DHT22;22382;44.768;17.206;2023-07-13T14:28:56;30.60;83.40
36352;DHT22;22382;44.768;17.206;2023-07-13T14:31:26;30.50;83.20
36352;DHT22;22382;44.768;17.206;2023-07-13T14:33:57;30.20;83.70
36352;DHT22;22382;44.768;17.206;2023-07-13T14:36:28;30.00;83.40
36352;DHT22;22382;44.768;17.206;2023-07-13T14:38:58;29.60;85.10
36352;DHT22;22382;44.768;17.206;2023-07-13T14:41:25;29.50;85.50
36352;DHT22;22382;44.768;17.206;2023-07-13T14:43:53;29.50;85.30
36352;DHT22;22382;44.768;17.206;2023-07-13T14:46:24;29.60;85.20
36352;DHT22;22382;44.768;17.206;2023-07-13T14:48:59;29.80;85.00
36352;DHT22;22382;44.768;17.206;2023-07-13T14:51:27;30.00;85.30
36352;DHT22;22382;44.768;17.206;2023-07-13T14:53:55;30.10;86.10
36352;DHT22;22382;44.768;17.206;2023-07-13T14:56:22;30.00;85.80
36352;DHT22;22382;44.768;17.206;2023-07-13T14:58:49;30.10;85.40
36352;DHT22;22382;44.768;17.206;2023-07-13T15:01:17;29.90;85.20
36352;DHT22;22382;44.768;17.206;2023-07-13T15:03:46;30.00;85.10
36352;DHT22;22382;44.768;17.206;2023-07-13T15:06:14;30.00;85.10
36352;DHT22;22382;44.768;17.206;2023-07-13T15:08:42;30.00;86.70
36352;DHT22;22382;44.768;17.206;2023-07-13T15:11:09;30.00;85.60
36352;DHT22;22382;44.768;17.206;2023-07-13T15:13:41;30.00;85.30
36352;DHT22;22382;44.768;17.206;2023-07-13T15:18:42;29.90;85.50
36352;DHT22;22382;44.768;17.206;2023-07-13T15:21:11;29.90;85.90
36352;DHT22;22382;44.768;17.206;2023-07-13T15:23:43;29.90;86.50
36352;DHT22;22382;44.768;17.206;2023-07-13T15:26:18;30.00;86.30
36352;DHT22;22382;44.768;17.206;2023-07-13T15:28:47;30.00;86.10
36352;DHT22;22382;44.768;17.206;2023-07-13T15:31:25;29.90;86.90
36352;DHT22;22382;44.768;17.206;2023-07-13T15:33:55;30.10;87.40
36352;DHT22;22382;44.768;17.206;2023-07-13T15:36:23;30.50;85.30
36352;DHT22;22382;44.768;17.206;2023-07-13T15:38:54;30.90;84.60
36352;DHT22;22382;44.768;17.206;2023-07-13T15:41:23;31.50;82.60
36352;DHT22;22382;44.768;17.206;2023-07-13T15:43:52;31.60;82.30
36352;DHT22;22382;44.768;17.206;2023-07-13T15:46:22;31.80;81.60
36352;DHT22;22382;44.768;17.206;2023-07-13T15:48:50;31.80;82.50
36352;DHT22;22382;44.768;17.206;2023-07-13T15:51:30;31.80;82.30
36352;DHT22;22382;44.768;17.206;2023-07-13T15:54:02;32.00;81.10
36352;DHT22;22382;44.768;17.206;2023-07-13T15:56:36;32.00;82.10
36352;DHT22;22382;44.768;17.206;2023-07-13T15:59:10;32.10;82.10
36352;DHT22;22382;44.768;17.206;2023-07-13T16:01:41;32.30;81.00
36352;DHT22;22382;44.768;17.206;2023-07-13T16:04:09;32.30;81.30
36352;DHT22;22382;44.768;17.206;2023-07-13T16:06:37;32.30;81.00
36352;DHT22;22382;44.768;17.206;2023-07-13T16:09:28;32.60;80.70
36352;DHT22;22382;44.768;17.206;2023-07-13T16:11:56;32.50;80.60
36352;DHT22;22382;44.768;17.206;2023-07-13T16:14:24;31.90;81.80
36352;DHT22;22382;44.768;17.206;2023-07-13T16:16:52;31.40;83.40
36352;DHT22;22382;44.768;17.206;2023-07-13T16:19:23;31.30;84.10